sensor_id;sensor_type;location;lat;lon;timestamp;P1;durP1;ratioP1;P2;durP2;ratioP2
23754;SDS011;12057;52.042;6.830;2022-12-07T00:03:37;47.25;;;20.65;;
23754;SDS011;12057;52.042;6.830;2022-12-07T00:08:39;40.05;;;20.25;;
23754;SDS011;12057;52.042;6.830;2022-12-07T00:13:40;44.05;;;20.77;;
23754;SDS011;12057;52.042;6.830;2022-12-07T00:23:43;39.20;;;18.33;;
23754;SDS011;12057;52.042;6.830;2022-12-07T00:28:54;48.05;;;20.92;;
23754;SDS011;12057;52.042;6.830;2022-12-07T00:33:57;51.92;;;21.27;;
23754;SDS011;12057;52.042;6.830;2022-12-07T00:38:58;54.80;;;20.50;;
23754;SDS011;12057;52.042;6.830;2022-12-07T00:44:00;43.25;;;19.63;;
23754;SDS011;12057;52.042;6.830;2022-12-07T00:49:01;50.97;;;21.77;;
23754;SDS011;12057;52.042;6.830;2022-12-07T00:54:01;40.30;;;19.87;;
23754;SDS011;12057;52.042;6.830;2022-12-07T00:59:03;50.07;;;18.83;;
23754;SDS011;12057;52.042;6.830;2022-12-07T01:04:04;41.25;;;17.25;;
23754;SDS011;12057;52.042;6.830;2022-12-07T01:09:05;37.28;;;17.50;;
23754;SDS011;12057;52.042;6.830;2022-12-07T01:14:06;36.35;;;17.45;;
23754;SDS011;12057;52.042;6.830;2022-12-07T01:19:07;32.80;;;17.02;;
23754;SDS011;12057;52.042;6.830;2022-12-07T01:24:09;43.27;;;17.57;;
23754;SDS011;12057;52.042;6.830;2022-12-07T01:29:10;37.33;;;16.65;;
23754;SDS011;12057;52.042;6.830;2022-12-07T01:34:11;37.60;;;15.73;;
23754;SDS011;12057;52.042;6.830;2022-12-07T01:39:12;41.83;;;16.15;;
23754;SDS011;12057;52.042;6.830;2022-12-07T01:44:23;35.00;;;15.10;;
23754;SDS011;12057;52.042;6.830;2022-12-07T01:49:42;31.25;;;14.50;;
23754;SDS011;12057;52.042;6.830;2022-12-07T01:54:46;25.52;;;13.57;;
23754;SDS011;12057;52.042;6.830;2022-12-07T01:59:51;38.80;;;14.25;;
23754;SDS011;12057;52.042;6.830;2022-12-07T02:04:53;30.63;;;13.55;;
23754;SDS011;12057;52.042;6.830;2022-12-07T02:09:55;30.58;;;13.30;;
23754;SDS011;12057;52.042;6.830;2022-12-07T02:14:56;30.10;;;13.70;;
23754;SDS011;12057;52.042;6.830;2022-12-07T02:20:04;24.50;;;13.45;;
23754;SDS011;12057;52.042;6.830;2022-12-07T02:30:51;31.27;;;13.55;;
23754;SDS011;12057;52.042;6.830;2022-12-07T02:36:11;32.10;;;12.15;;
23754;SDS011;12057;52.042;6.830;2022-12-07T02:41:20;29.33;;;11.68;;
23754;SDS011;12057;52.042;6.830;2022-12-07T02:46:33;38.58;;;12.23;;
23754;SDS011;12057;52.042;6.830;2022-12-07T02:51:42;29.75;;;12.73;;
23754;SDS011;12057;52.042;6.830;2022-12-07T02:56:46;35.40;;;13.38;;
23754;SDS011;12057;52.042;6.830;2022-12-07T03:12:42;22.58;;;10.23;;
23754;SDS011;12057;52.042;6.830;2022-12-07T03:17:52;26.15;;;9.75;;
23754;SDS011;12057;52.042;6.830;2022-12-07T03:22:54;33.80;;;9.95;;
23754;SDS011;12057;52.042;6.830;2022-12-07T03:28:01;26.27;;;9.88;;
23754;SDS011;12057;52.042;6.830;2022-12-07T03:33:28;32.33;;;10.00;;
23754;SDS011;12057;52.042;6.830;2022-12-07T03:38:31;25.58;;;9.20;;
23754;SDS011;12057;52.042;6.830;2022-12-07T03:43:42;29.52;;;8.90;;
23754;SDS011;12057;52.042;6.830;2022-12-07T03:48:56;21.38;;;9.07;;
23754;SDS011;12057;52.042;6.830;2022-12-07T03:54:18;26.02;;;7.45;;
23754;SDS011;12057;52.042;6.830;2022-12-07T03:59:23;22.30;;;8.00;;
23754;SDS011;12057;52.042;6.830;2022-12-07T04:04:25;28.85;;;8.45;;
23754;SDS011;12057;52.042;6.830;2022-12-07T04:09:26;20.88;;;8.65;;
23754;SDS011;12057;52.042;6.830;2022-12-07T04:14:26;28.73;;;7.50;;
23754;SDS011;12057;52.042;6.830;2022-12-07T04:19:28;29.17;;;9.45;;
23754;SDS011;12057;52.042;6.830;2022-12-07T04:24:32;44.28;;;7.63;;
23754;SDS011;12057;52.042;6.830;2022-12-07T04:29:33;21.08;;;7.03;;
23754;SDS011;12057;52.042;6.830;2022-12-07T04:34:34;33.40;;;6.90;;
23754;SDS011;12057;52.042;6.830;2022-12-07T04:39:34;23.63;;;7.60;;
23754;SDS011;12057;52.042;6.830;2022-12-07T04:44:35;40.90;;;7.22;;
23754;SDS011;12057;52.042;6.830;2022-12-07T04:49:36;25.65;;;6.50;;
23754;SDS011;12057;52.042;6.830;2022-12-07T04:54:37;26.58;;;5.88;;
23754;SDS011;12057;52.042;6.830;2022-12-07T04:59:38;13.93;;;5.25;;
23754;SDS011;12057;52.042;6.830;2022-12-07T05:04:39;32.15;;;6.05;;
23754;SDS011;12057;52.042;6.830;2022-12-07T05:09:39;37.55;;;6.20;;
23754;SDS011;12057;52.042;6.830;2022-12-07T05:14:40;15.07;;;4.78;;
23754;SDS011;12057;52.042;6.830;2022-12-07T05:19:41;31.42;;;4.95;;
23754;SDS011;12057;52.042;6.830;2022-12-07T05:24:44;29.65;;;5.85;;
23754;SDS011;12057;52.042;6.830;2022-12-07T05:29:45;17.23;;;5.22;;
23754;SDS011;12057;52.042;6.830;2022-12-07T05:34:46;21.08;;;4.97;;
23754;SDS011;12057;52.042;6.830;2022-12-07T05:39:47;33.67;;;6.40;;
23754;SDS011;12057;52.042;6.830;2022-12-07T05:44:47;45.20;;;6.10;;
23754;SDS011;12057;52.042;6.830;2022-12-07T05:49:48;21.55;;;5.88;;
23754;SDS011;12057;52.042;6.830;2022-12-07T05:54:49;19.13;;;5.38;;
23754;SDS011;12057;52.042;6.830;2022-12-07T05:59:50;23.38;;;5.18;;
23754;SDS011;12057;52.042;6.830;2022-12-07T06:04:51;26.70;;;6.63;;
23754;SDS011;12057;52.042;6.830;2022-12-07T06:09:51;18.70;;;6.40;;
23754;SDS011;12057;52.042;6.830;2022-12-07T06:14:52;17.48;;;4.97;;
23754;SDS011;12057;52.042;6.830;2022-12-07T06:19:53;22.25;;;5.10;;
23754;SDS011;12057;52.042;6.830;2022-12-07T06:24:54;28.02;;;5.80;;
23754;SDS011;12057;52.042;6.830;2022-12-07T06:29:55;27.65;;;6.22;;
23754;SDS011;12057;52.042;6.830;2022-12-07T06:34:55;14.60;;;5.28;;
23754;SDS011;12057;52.042;6.830;2022-12-07T06:39:56;30.13;;;6.03;;
23754;SDS011;12057;52.042;6.830;2022-12-07T06:44:57;24.77;;;5.75;;
23754;SDS011;12057;52.042;6.830;2022-12-07T06:50:04;31.40;;;5.93;;
23754;SDS011;12057;52.042;6.830;2022-12-07T06:55:06;28.52;;;4.47;;
23754;SDS011;12057;52.042;6.830;2022-12-07T07:00:07;22.88;;;4.88;;
23754;SDS011;12057;52.042;6.830;2022-12-07T07:10:09;15.60;;;5.00;;
23754;SDS011;12057;52.042;6.830;2022-12-07T07:15:10;20.67;;;5.22;;
23754;SDS011;12057;52.042;6.830;2022-12-07T07:20:11;21.80;;;5.15;;
23754;SDS011;12057;52.042;6.830;2022-12-07T07:25:14;23.17;;;5.38;;
23754;SDS011;12057;52.042;6.830;2022-12-07T07:35:15;22.17;;;6.77;;
23754;SDS011;12057;52.042;6.830;2022-12-07T07:40:17;23.08;;;5.60;;
23754;SDS011;12057;52.042;6.830;2022-12-07T07:50:19;42.40;;;6.63;;
23754;SDS011;12057;52.042;6.830;2022-12-07T07:55:21;31.13;;;6.65;;
23754;SDS011;12057;52.042;6.830;2022-12-07T08:00:21;23.08;;;7.13;;
23754;SDS011;12057;52.042;6.830;2022-12-07T08:10:23;22.83;;;7.33;;
23754;SDS011;12057;52.042;6.830;2022-12-07T08:15:24;25.58;;;7.20;;
23754;SDS011;12057;52.042;6.830;2022-12-07T08:20:29;44.03;;;6.70;;
23754;SDS011;12057;52.042;6.830;2022-12-07T08:25:31;26.13;;;6.97;;
23754;SDS011;12057;52.042;6.830;2022-12-07T08:30:32;42.03;;;6.50;;
23754;SDS011;12057;52.042;6.830;2022-12-07T08:35:33;28.08;;;7.00;;
23754;SDS011;12057;52.042;6.830;2022-12-07T08:40:34;35.50;;;6.82;;
23754;SDS011;12057;52.042;6.830;2022-12-07T08:45:35;27.75;;;6.50;;
23754;SDS011;12057;52.042;6.830;2022-12-07T08:50:36;26.20;;;7.35;;
23754;SDS011;12057;52.042;6.830;2022-12-07T08:55:38;45.53;;;12.40;;
23754;SDS011;12057;52.042;6.830;2022-12-07T09:00:38;36.35;;;8.40;;
23754;SDS011;12057;52.042;6.830;2022-12-07T09:05:39;34.15;;;9.60;;
23754;SDS011;12057;52.042;6.830;2022-12-07T09:10:43;27.75;;;8.50;;
23754;SDS011;12057;52.042;6.830;2022-12-07T09:15:44;39.92;;;9.68;;
23754;SDS011;12057;52.042;6.830;2022-12-07T09:20:45;34.73;;;7.57;;
23754;SDS011;12057;52.042;6.830;2022-12-07T09:25:45;74.95;;;24.58;;
23754;SDS011;12057;52.042;6.830;2022-12-07T09:30:46;18.40;;;6.23;;
23754;SDS011;12057;52.042;6.830;2022-12-07T09:35:49;32.50;;;5.55;;
23754;SDS011;12057;52.042;6.830;2022-12-07T09:40:51;27.13;;;5.25;;
23754;SDS011;12057;52.042;6.830;2022-12-07T09:45:54;28.65;;;6.18;;
23754;SDS011;12057;52.042;6.830;2022-12-07T09:50:57;19.80;;;5.00;;
23754;SDS011;12057;52.042;6.830;2022-12-07T09:56:00;16.80;;;4.72;;
23754;SDS011;12057;52.042;6.830;2022-12-07T10:06:10;20.60;;;4.90;;
23754;SDS011;12057;52.042;6.830;2022-12-07T10:11:12;17.92;;;4.32;;
23754;SDS011;12057;52.042;6.830;2022-12-07T10:16:57;24.48;;;4.68;;
23754;SDS011;12057;52.042;6.830;2022-12-07T10:21:40;24.15;;;3.40;;
23754;SDS011;12057;52.042;6.830;2022-12-07T10:26:59;12.45;;;3.70;;
23754;SDS011;12057;52.042;6.830;2022-12-07T10:32:01;27.60;;;4.55;;
23754;SDS011;12057;52.042;6.830;2022-12-07T10:42:18;10.82;;;3.13;;
23754;SDS011;12057;52.042;6.830;2022-12-07T10:47:34;9.93;;;2.50;;
23754;SDS011;12057;52.042;6.830;2022-12-07T10:58:26;11.27;;;2.90;;
23754;SDS011;12057;52.042;6.830;2022-12-07T11:03:43;12.48;;;2.05;;
23754;SDS011;12057;52.042;6.830;2022-12-07T11:14:36;16.42;;;3.80;;
23754;SDS011;12057;52.042;6.830;2022-12-07T11:20:12;12.85;;;2.00;;
23754;SDS011;12057;52.042;6.830;2022-12-07T11:30:46;13.90;;;2.42;;
23754;SDS011;12057;52.042;6.830;2022-12-07T11:41:24;12.95;;;1.80;;
23754;SDS011;12057;52.042;6.830;2022-12-07T11:46:40;12.23;;;1.90;;
23754;SDS011;12057;52.042;6.830;2022-12-07T11:51:50;16.75;;;2.17;;
23754;SDS011;12057;52.042;6.830;2022-12-07T11:56:56;7.32;;;2.85;;
23754;SDS011;12057;52.042;6.830;2022-12-07T12:02:14;24.98;;;7.63;;
23754;SDS011;12057;52.042;6.830;2022-12-07T12:07:21;17.08;;;2.95;;
23754;SDS011;12057;52.042;6.830;2022-12-07T12:12:46;14.38;;;1.98;;
23754;SDS011;12057;52.042;6.830;2022-12-07T12:39:31;10.05;;;2.13;;
23754;SDS011;12057;52.042;6.830;2022-12-07T12:44:38;22.03;;;2.57;;
23754;SDS011;12057;52.042;6.830;2022-12-07T12:49:40;8.07;;;1.67;;
23754;SDS011;12057;52.042;6.830;2022-12-07T13:00:21;7.85;;;2.67;;
23754;SDS011;12057;52.042;6.830;2022-12-07T13:05:25;7.88;;;1.63;;
23754;SDS011;12057;52.042;6.830;2022-12-07T13:20:47;19.70;;;2.42;;
23754;SDS011;12057;52.042;6.830;2022-12-07T13:36:47;9.98;;;3.03;;
23754;SDS011;12057;52.042;6.830;2022-12-07T13:41:52;15.97;;;3.43;;
23754;SDS011;12057;52.042;6.830;2022-12-07T13:46:59;14.90;;;2.33;;
23754;SDS011;12057;52.042;6.830;2022-12-07T13:52:16;23.08;;;2.47;;
23754;SDS011;12057;52.042;6.830;2022-12-07T13:57:18;15.55;;;2.80;;
23754;SDS011;12057;52.042;6.830;2022-12-07T14:02:25;12.80;;;2.60;;
23754;SDS011;12057;52.042;6.830;2022-12-07T14:07:28;9.98;;;2.63;;
23754;SDS011;12057;52.042;6.830;2022-12-07T14:12:29;14.20;;;2.88;;
23754;SDS011;12057;52.042;6.830;2022-12-07T14:17:30;15.57;;;3.40;;
23754;SDS011;12057;52.042;6.830;2022-12-07T14:22:32;29.23;;;2.70;;
23754;SDS011;12057;52.042;6.830;2022-12-07T14:27:35;19.52;;;2.88;;
23754;SDS011;12057;52.042;6.830;2022-12-07T14:32:36;14.93;;;2.80;;
23754;SDS011;12057;52.042;6.830;2022-12-07T14:37:38;26.65;;;2.72;;
23754;SDS011;12057;52.042;6.830;2022-12-07T14:42:40;21.38;;;3.00;;
23754;SDS011;12057;52.042;6.830;2022-12-07T14:47:45;16.92;;;2.38;;
23754;SDS011;12057;52.042;6.830;2022-12-07T14:52:48;30.60;;;3.40;;
23754;SDS011;12057;52.042;6.830;2022-12-07T14:57:59;12.43;;;2.60;;
23754;SDS011;12057;52.042;6.830;2022-12-07T15:03:00;11.65;;;3.20;;
23754;SDS011;12057;52.042;6.830;2022-12-07T15:08:01;10.00;;;2.23;;
23754;SDS011;12057;52.042;6.830;2022-12-07T15:13:02;13.20;;;2.17;;
23754;SDS011;12057;52.042;6.830;2022-12-07T15:18:22;19.35;;;2.47;;
23754;SDS011;12057;52.042;6.830;2022-12-07T15:23:24;19.70;;;2.75;;
23754;SDS011;12057;52.042;6.830;2022-12-07T15:28:25;17.77;;;2.63;;
23754;SDS011;12057;52.042;6.830;2022-12-07T15:33:25;20.23;;;3.50;;
23754;SDS011;12057;52.042;6.830;2022-12-07T15:38:26;27.97;;;4.20;;
23754;SDS011;12057;52.042;6.830;2022-12-07T15:43:28;22.17;;;4.18;;
23754;SDS011;12057;52.042;6.830;2022-12-07T15:48:48;17.63;;;4.07;;
23754;SDS011;12057;52.042;6.830;2022-12-07T15:53:49;19.23;;;3.97;;
23754;SDS011;12057;52.042;6.830;2022-12-07T15:58:49;42.33;;;5.43;;
23754;SDS011;12057;52.042;6.830;2022-12-07T16:03:50;29.67;;;9.93;;
23754;SDS011;12057;52.042;6.830;2022-12-07T16:08:51;22.17;;;4.60;;
23754;SDS011;12057;52.042;6.830;2022-12-07T16:13:52;25.57;;;6.90;;
23754;SDS011;12057;52.042;6.830;2022-12-07T16:18:52;25.63;;;6.22;;
23754;SDS011;12057;52.042;6.830;2022-12-07T16:23:56;21.48;;;5.30;;
23754;SDS011;12057;52.042;6.830;2022-12-07T16:28:58;30.95;;;6.95;;
23754;SDS011;12057;52.042;6.830;2022-12-07T16:33:59;24.57;;;6.53;;
23754;SDS011;12057;52.042;6.830;2022-12-07T16:39:00;16.88;;;4.88;;
23754;SDS011;12057;52.042;6.830;2022-12-07T16:44:12;22.60;;;6.18;;
23754;SDS011;12057;52.042;6.830;2022-12-07T16:49:16;14.07;;;4.57;;
23754;SDS011;12057;52.042;6.830;2022-12-07T16:54:21;24.35;;;5.30;;
23754;SDS011;12057;52.042;6.830;2022-12-07T16:59:22;57.22;;;23.55;;
23754;SDS011;12057;52.042;6.830;2022-12-07T17:04:22;18.00;;;7.37;;
23754;SDS011;12057;52.042;6.830;2022-12-07T17:09:23;22.80;;;8.80;;
23754;SDS011;12057;52.042;6.830;2022-12-07T17:14:24;13.07;;;6.45;;
23754;SDS011;12057;52.042;6.830;2022-12-07T17:19:46;11.45;;;5.05;;
23754;SDS011;12057;52.042;6.830;2022-12-07T17:24:47;17.98;;;6.28;;
23754;SDS011;12057;52.042;6.830;2022-12-07T17:29:48;10.77;;;4.27;;
23754;SDS011;12057;52.042;6.830;2022-12-07T17:34:49;16.85;;;4.63;;
23754;SDS011;12057;52.042;6.830;2022-12-07T17:39:49;9.13;;;3.87;;
23754;SDS011;12057;52.042;6.830;2022-12-07T17:44:52;9.98;;;3.70;;
23754;SDS011;12057;52.042;6.830;2022-12-07T17:49:53;17.17;;;4.63;;
23754;SDS011;12057;52.042;6.830;2022-12-07T17:54:54;8.88;;;4.10;;
23754;SDS011;12057;52.042;6.830;2022-12-07T17:59:56;11.02;;;4.20;;
23754;SDS011;12057;52.042;6.830;2022-12-07T18:04:59;15.07;;;5.50;;
23754;SDS011;12057;52.042;6.830;2022-12-07T18:10:00;12.25;;;4.93;;
23754;SDS011;12057;52.042;6.830;2022-12-07T18:20:04;33.17;;;5.93;;
23754;SDS011;12057;52.042;6.830;2022-12-07T18:25:11;26.45;;;6.57;;
23754;SDS011;12057;52.042;6.830;2022-12-07T18:30:14;21.90;;;6.45;;
23754;SDS011;12057;52.042;6.830;2022-12-07T18:35:16;19.25;;;6.72;;
23754;SDS011;12057;52.042;6.830;2022-12-07T18:40:26;23.83;;;7.28;;
23754;SDS011;12057;52.042;6.830;2022-12-07T18:45:33;20.77;;;6.57;;
23754;SDS011;12057;52.042;6.830;2022-12-07T18:50:58;25.80;;;5.80;;
23754;SDS011;12057;52.042;6.830;2022-12-07T18:56:08;14.38;;;5.88;;
23754;SDS011;12057;52.042;6.830;2022-12-07T19:01:16;14.40;;;5.55;;
23754;SDS011;12057;52.042;6.830;2022-12-07T19:06:21;11.15;;;5.78;;
23754;SDS011;12057;52.042;6.830;2022-12-07T19:11:29;19.98;;;6.20;;
23754;SDS011;12057;52.042;6.830;2022-12-07T19:16:54;24.80;;;7.13;;
23754;SDS011;12057;52.042;6.830;2022-12-07T19:22:05;18.60;;;6.70;;
23754;SDS011;12057;52.042;6.830;2022-12-07T19:27:07;12.45;;;6.75;;
23754;SDS011;12057;52.042;6.830;2022-12-07T19:32:13;13.52;;;6.78;;
23754;SDS011;12057;52.042;6.830;2022-12-07T19:37:29;21.33;;;7.70;;
23754;SDS011;12057;52.042;6.830;2022-12-07T19:42:32;16.83;;;7.90;;
23754;SDS011;12057;52.042;6.830;2022-12-07T19:47:34;20.55;;;8.60;;
23754;SDS011;12057;52.042;6.830;2022-12-07T19:52:35;47.17;;;8.40;;
23754;SDS011;12057;52.042;6.830;2022-12-07T19:57:36;27.30;;;9.57;;
23754;SDS011;12057;52.042;6.830;2022-12-07T20:02:36;50.20;;;17.57;;
23754;SDS011;12057;52.042;6.830;2022-12-07T20:07:37;35.33;;;14.47;;
23754;SDS011;12057;52.042;6.830;2022-12-07T20:12:38;32.07;;;11.40;;
23754;SDS011;12057;52.042;6.830;2022-12-07T20:17:57;22.00;;;9.48;;
23754;SDS011;12057;52.042;6.830;2022-12-07T20:22:58;27.40;;;9.67;;
23754;SDS011;12057;52.042;6.830;2022-12-07T20:27:59;29.40;;;10.37;;
23754;SDS011;12057;52.042;6.830;2022-12-07T20:33:00;25.65;;;9.50;;
23754;SDS011;12057;52.042;6.830;2022-12-07T20:38:01;34.92;;;14.05;;
23754;SDS011;12057;52.042;6.830;2022-12-07T20:43:01;27.37;;;10.43;;
23754;SDS011;12057;52.042;6.830;2022-12-07T20:48:03;25.13;;;10.82;;
23754;SDS011;12057;52.042;6.830;2022-12-07T20:53:03;22.70;;;10.32;;
23754;SDS011;12057;52.042;6.830;2022-12-07T20:58:07;28.08;;;10.25;;
23754;SDS011;12057;52.042;6.830;2022-12-07T21:03:09;19.85;;;9.55;;
23754;SDS011;12057;52.042;6.830;2022-12-07T21:08:10;32.22;;;10.38;;
23754;SDS011;12057;52.042;6.830;2022-12-07T21:13:11;15.77;;;8.30;;
23754;SDS011;12057;52.042;6.830;2022-12-07T21:18:12;20.15;;;9.30;;
23754;SDS011;12057;52.042;6.830;2022-12-07T21:23:12;31.80;;;10.30;;
23754;SDS011;12057;52.042;6.830;2022-12-07T21:28:13;32.40;;;10.23;;
23754;SDS011;12057;52.042;6.830;2022-12-07T21:33:14;23.05;;;8.55;;
23754;SDS011;12057;52.042;6.830;2022-12-07T21:38:15;35.87;;;9.93;;
23754;SDS011;12057;52.042;6.830;2022-12-07T21:43:16;25.35;;;9.10;;
23754;SDS011;12057;52.042;6.830;2022-12-07T21:48:16;26.03;;;8.67;;
23754;SDS011;12057;52.042;6.830;2022-12-07T21:53:17;26.52;;;9.30;;
23754;SDS011;12057;52.042;6.830;2022-12-07T21:58:18;44.00;;;10.00;;
23754;SDS011;12057;52.042;6.830;2022-12-07T22:03:19;28.73;;;9.77;;
23754;SDS011;12057;52.042;6.830;2022-12-07T22:08:21;23.80;;;10.60;;
23754;SDS011;12057;52.042;6.830;2022-12-07T22:13:21;30.40;;;11.20;;
23754;SDS011;12057;52.042;6.830;2022-12-07T22:18:42;28.17;;;11.27;;
23754;SDS011;12057;52.042;6.830;2022-12-07T22:23:43;41.42;;;11.93;;
23754;SDS011;12057;52.042;6.830;2022-12-07T22:28:44;40.28;;;14.65;;
23754;SDS011;12057;52.042;6.830;2022-12-07T22:33:45;41.17;;;15.20;;
23754;SDS011;12057;52.042;6.830;2022-12-07T22:38:46;37.85;;;14.85;;
23754;SDS011;12057;52.042;6.830;2022-12-07T22:43:47;33.92;;;16.00;;
23754;SDS011;12057;52.042;6.830;2022-12-07T22:48:48;39.95;;;17.17;;
23754;SDS011;12057;52.042;6.830;2022-12-07T22:53:49;38.90;;;17.65;;
23754;SDS011;12057;52.042;6.830;2022-12-07T22:58:49;50.65;;;19.17;;
23754;SDS011;12057;52.042;6.830;2022-12-07T23:03:50;40.30;;;17.95;;
23754;SDS011;12057;52.042;6.830;2022-12-07T23:08:51;47.75;;;19.40;;
23754;SDS011;12057;52.042;6.830;2022-12-07T23:13:54;42.53;;;20.25;;
23754;SDS011;12057;52.042;6.830;2022-12-07T23:18:55;41.80;;;18.47;;
23754;SDS011;12057;52.042;6.830;2022-12-07T23:23:56;47.25;;;18.98;;
23754;SDS011;12057;52.042;6.830;2022-12-07T23:28:57;44.72;;;20.02;;
23754;SDS011;12057;52.042;6.830;2022-12-07T23:33:58;45.40;;;18.45;;
23754;SDS011;12057;52.042;6.830;2022-12-07T23:38:58;57.03;;;19.27;;
23754;SDS011;12057;52.042;6.830;2022-12-07T23:43:59;46.78;;;18.58;;
23754;SDS011;12057;52.042;6.830;2022-12-07T23:59:03;45.63;;;16.73;;
